Terminal Aerodrome Forecast
Issued by NWS Grand Forks, ND

Home | Current Version | Previous Version | Graphics & Text | Print | Product List | Glossary On
Versions: 1 2 3 4 5 6 7 8 9 10 11 12 13 14 15 16 17 18 19 20 21 22 23 24
000
FTUS43 KFGF 271600 AAA
TAFGFK
TAF AMD
KGFK 271643Z 2717/2812 17010KT 1SM BR OVC002
      TEMPO 2717/2719 3SM BR BKN008
     FM271900 16014KT P6SM BKN010
     FM272100 16013KT P6SM BKN250=

USA.gov is the U.S. government's official web portal to all federal, state and local government web resources and services.